ADDS METAR Data INFO
IDs: Format: Raw Decoded Include TAF

Data at: 0353 UTC 18 Oct 2017

KHEZ 180256Z AUTO 00000KT 10SM CLR 13/12 A3021 RMK AO2 SLP231 T01330122 51013
KHEZ 180156Z AUTO 00000KT 10SM CLR 14/13 A3020 RMK AO2 SLP230 T01390133
KHEZ 180056Z AUTO 00000KT 10SM CLR 16/14 A3018 RMK AO2 SLP225 T01560139
KHEZ 172256Z AUTO 02004KT 10SM CLR 22/13 A3016 RMK AO2 SLP214 T02220128
KHEZ 172156Z AUTO 03006KT 10SM CLR 24/12 A3016 RMK AO2 SLP217 T02390122
KHEZ 172056Z AUTO 06005KT 10SM CLR 24/12 A3017 RMK AO2 SLP221 T02390117 56019
KHEZ 171956Z AUTO 06007KT 10SM CLR 23/11 A3019 RMK AO2 SLP226 T02330111
KHEZ 171856Z AUTO 07004KT 10SM CLR 22/11 A3020 RMK AO2 SLP231 T02170106
KHEZ 171756Z AUTO 08005KT 10SM CLR 21/12 A3023 RMK AO2 SLP240 T02110117 10211 20072 58015 TSNO
KHEZ 171656Z AUTO VRB03KT 10SM CLR 19/11 A3026 RMK AO2 SLP249 T01890106
KHEZ 171556Z AUTO 06005KT 10SM CLR 17/10 A3027 RMK AO2 SLP252 T01720100
KHEZ 171456Z AUTO VRB06KT 10SM CLR 14/09 A3028 RMK AO2 SLP255 T01440089 50006
KHEZ 171356Z AUTO 02005KT 10SM CLR 11/09 A3028 RMK AO2 SLP257 T01110089
KHEZ 171256Z AUTO 02004KT 10SM CLR 08/07 A3027 RMK AO2 SLP254 T00830072
KHEZ 171156Z AUTO 36003KT 10SM CLR 07/07 A3026 RMK AO2 SLP251 7//// T00720067 10100 20072 53014
KHEZ 171056Z AUTO 01004KT 10SM CLR 08/07 A3024 RMK AO2 SLP244 T00780067 TSNO
KHEZ 170956Z AUTO 01004KT 10SM CLR 08/07 A3023 RMK AO2 SLP239 T00780067
KHEZ 170856Z AUTO 02005KT 10SM CLR 08/07 A3022 RMK AO2 SLP236 T00830067 58007
KHEZ 170756Z AUTO 02004KT 10SM CLR 08/07 A3023 RMK AO2 SLP240 T00830067
KHEZ 170656Z AUTO 36003KT 10SM CLR 09/07 A3024 RMK AO2 SLP242 T00890072
KHEZ 170556Z AUTO 02003KT 10SM CLR 10/08 A3024 RMK AO2 SLP243 6//// T01000078 10167 20100 402170100 58004
KHEZ 170456Z AUTO 35004KT 10SM CLR 11/08 A3025 RMK AO2 SLP246 T01110078
KHEZ 170356Z AUTO 01004KT 10SM CLR 12/08 A3025 RMK AO2 SLP247 T01170078
KHEZ 170256Z AUTO 36004KT 10SM CLR 12/08 A3025 RMK AO2 SLP248 T01220078 51017
KHEZ 170156Z AUTO 01005KT 10SM CLR 13/08 A3024 RMK AO2 SLP243 T01330078
KHEZ 170056Z AUTO 36005KT 10SM CLR 14/08 A3023 RMK AO2 SLP238 T01440078
KHEZ 162356Z AUTO 01006KT 10SM CLR 17/07 A3020 RMK AO2 SLP231 T01670067 10217 20167 53010
KHEZ 162256Z AUTO 01009G17KT 10SM CLR 19/06 A3018 RMK AO2 SLP224 T01940061
KHEZ 162156Z AUTO 02012KT 10SM CLR 21/06 A3017 RMK AO2 SLP220 T02110061
KHEZ 162056Z AUTO 36014G18KT 10SM CLR 22/07 A3017 RMK AO2 SLP219 T02170067 56022
KHEZ 161956Z AUTO 01015G21KT 10SM CLR 21/07 A3017 RMK AO2 SLP220 T02110067
KHEZ 161856Z AUTO 02012G19KT 10SM CLR 21/07 A3021 RMK AO2 SLP231 T02060067
KHEZ 161756Z AUTO 02013G20KT 10SM CLR 20/07 A3024 RMK AO2 SLP242 T02000067 10200 20128 58019
KHEZ 161656Z AUTO 01011G16KT 10SM CLR 19/09 A3027 RMK AO2 SLP252 T01890089
KHEZ 161556Z AUTO 03012KT 10SM CLR 18/08 A3029 RMK AO2 SLP259 T01780078